sensor_id;sensor_type;location;lat;lon;timestamp;P1;durP1;ratioP1;P2;durP2;ratioP2
57343;SDS011;43180;50.974;18.172;2023-08-17T00:04:39;13.30;;;10.20;;
57343;SDS011;43180;50.974;18.172;2023-08-17T00:14:23;13.70;;;11.00;;
57343;SDS011;43180;50.974;18.172;2023-08-17T00:24:06;14.30;;;10.40;;
57343;SDS011;43180;50.974;18.172;2023-08-17T00:33:49;4.50;;;3.90;;
57343;SDS011;43180;50.974;18.172;2023-08-17T00:43:31;17.10;;;11.40;;
57343;SDS011;43180;50.974;18.172;2023-08-17T00:53:15;24.50;;;15.70;;
57343;SDS011;43180;50.974;18.172;2023-08-17T01:02:59;20.00;;;15.50;;
57343;SDS011;43180;50.974;18.172;2023-08-17T01:12:44;17.50;;;13.80;;
57343;SDS011;43180;50.974;18.172;2023-08-17T01:22:45;15.30;;;10.40;;
57343;SDS011;43180;50.974;18.172;2023-08-17T01:32:33;11.20;;;7.90;;
57343;SDS011;43180;50.974;18.172;2023-08-17T01:42:25;15.60;;;7.50;;
57343;SDS011;43180;50.974;18.172;2023-08-17T01:52:14;12.80;;;8.10;;
57343;SDS011;43180;50.974;18.172;2023-08-17T02:01:57;11.40;;;5.40;;
57343;SDS011;43180;50.974;18.172;2023-08-17T02:11:39;7.30;;;5.80;;
57343;SDS011;43180;50.974;18.172;2023-08-17T02:21:21;8.10;;;5.00;;
57343;SDS011;43180;50.974;18.172;2023-08-17T02:31:03;12.90;;;6.20;;
57343;SDS011;43180;50.974;18.172;2023-08-17T02:40:46;9.20;;;6.40;;
57343;SDS011;43180;50.974;18.172;2023-08-17T02:57:55;11.60;;;6.40;;
57343;SDS011;43180;50.974;18.172;2023-08-17T03:07:38;8.00;;;6.00;;
57343;SDS011;43180;50.974;18.172;2023-08-17T03:17:21;8.40;;;5.60;;
57343;SDS011;43180;50.974;18.172;2023-08-17T03:27:06;6.00;;;2.90;;
57343;SDS011;43180;50.974;18.172;2023-08-17T03:36:49;14.40;;;8.40;;
57343;SDS011;43180;50.974;18.172;2023-08-17T03:46:32;8.80;;;5.00;;
57343;SDS011;43180;50.974;18.172;2023-08-17T03:56:14;7.80;;;5.70;;
57343;SDS011;43180;50.974;18.172;2023-08-17T04:13:14;7.00;;;4.80;;
57343;SDS011;43180;50.974;18.172;2023-08-17T04:22:56;7.40;;;6.40;;
57343;SDS011;43180;50.974;18.172;2023-08-17T04:32:40;14.60;;;7.70;;
57343;SDS011;43180;50.974;18.172;2023-08-17T04:42:23;6.30;;;4.60;;
57343;SDS011;43180;50.974;18.172;2023-08-17T04:52:07;6.40;;;4.70;;
57343;SDS011;43180;50.974;18.172;2023-08-17T05:01:51;16.80;;;5.50;;
57343;SDS011;43180;50.974;18.172;2023-08-17T05:11:34;7.20;;;5.10;;
57343;SDS011;43180;50.974;18.172;2023-08-17T05:21:16;4.30;;;3.70;;
57343;SDS011;43180;50.974;18.172;2023-08-17T05:31:05;7.50;;;4.90;;
57343;SDS011;43180;50.974;18.172;2023-08-17T05:40:54;7.90;;;5.70;;
57343;SDS011;43180;50.974;18.172;2023-08-17T05:50:40;5.10;;;3.60;;
57343;SDS011;43180;50.974;18.172;2023-08-17T06:00:23;6.40;;;3.50;;
57343;SDS011;43180;50.974;18.172;2023-08-17T06:10:10;4.40;;;3.50;;
57343;SDS011;43180;50.974;18.172;2023-08-17T06:19:58;4.70;;;2.90;;
57343;SDS011;43180;50.974;18.172;2023-08-17T06:29:41;2.60;;;2.40;;
57343;SDS011;43180;50.974;18.172;2023-08-17T06:39:25;5.50;;;3.60;;
57343;SDS011;43180;50.974;18.172;2023-08-17T06:49:10;11.80;;;4.10;;
57343;SDS011;43180;50.974;18.172;2023-08-17T06:58:59;7.10;;;4.10;;
57343;SDS011;43180;50.974;18.172;2023-08-17T07:08:46;6.70;;;3.80;;
57343;SDS011;43180;50.974;18.172;2023-08-17T07:18:33;13.10;;;3.90;;
57343;SDS011;43180;50.974;18.172;2023-08-17T07:28:15;6.20;;;3.70;;
57343;SDS011;43180;50.974;18.172;2023-08-17T07:38:02;5.20;;;3.70;;
57343;SDS011;43180;50.974;18.172;2023-08-17T07:47:46;8.70;;;4.70;;
57343;SDS011;43180;50.974;18.172;2023-08-17T07:57:28;4.40;;;3.50;;
57343;SDS011;43180;50.974;18.172;2023-08-17T08:07:11;8.00;;;3.50;;
57343;SDS011;43180;50.974;18.172;2023-08-17T08:16:54;5.70;;;3.60;;
57343;SDS011;43180;50.974;18.172;2023-08-17T08:26:37;4.30;;;3.70;;
57343;SDS011;43180;50.974;18.172;2023-08-17T08:36:21;4.40;;;3.50;;
57343;SDS011;43180;50.974;18.172;2023-08-17T08:46:04;11.30;;;4.50;;
57343;SDS011;43180;50.974;18.172;2023-08-17T08:55:53;7.00;;;5.30;;
57343;SDS011;43180;50.974;18.172;2023-08-17T09:05:39;3.80;;;3.50;;
57343;SDS011;43180;50.974;18.172;2023-08-17T09:15:25;6.30;;;4.40;;
57343;SDS011;43180;50.974;18.172;2023-08-17T09:25:39;9.40;;;4.30;;
57343;SDS011;43180;50.974;18.172;2023-08-17T09:35:44;6.10;;;4.20;;
57343;SDS011;43180;50.974;18.172;2023-08-17T09:45:28;7.40;;;5.10;;
57343;SDS011;43180;50.974;18.172;2023-08-17T09:55:18;7.40;;;4.50;;
57343;SDS011;43180;50.974;18.172;2023-08-17T10:05:04;8.30;;;4.40;;
57343;SDS011;43180;50.974;18.172;2023-08-17T10:14:59;5.90;;;4.20;;
57343;SDS011;43180;50.974;18.172;2023-08-17T10:24:57;7.10;;;4.10;;
57343;SDS011;43180;50.974;18.172;2023-08-17T10:34:42;6.40;;;3.20;;
57343;SDS011;43180;50.974;18.172;2023-08-17T10:44:45;4.60;;;4.10;;
57343;SDS011;43180;50.974;18.172;2023-08-17T10:54:56;3.30;;;3.00;;
57343;SDS011;43180;50.974;18.172;2023-08-17T11:05:02;4.50;;;3.60;;
57343;SDS011;43180;50.974;18.172;2023-08-17T11:15:40;9.50;;;4.00;;
57343;SDS011;43180;50.974;18.172;2023-08-17T11:25:29;5.00;;;4.30;;
57343;SDS011;43180;50.974;18.172;2023-08-17T11:35:49;3.80;;;3.00;;
57343;SDS011;43180;50.974;18.172;2023-08-17T11:47:21;10.40;;;3.60;;
57343;SDS011;43180;50.974;18.172;2023-08-17T11:58:51;4.60;;;3.50;;
57343;SDS011;43180;50.974;18.172;2023-08-17T12:10:30;4.10;;;3.70;;
57343;SDS011;43180;50.974;18.172;2023-08-17T12:22:06;4.20;;;3.70;;
57343;SDS011;43180;50.974;18.172;2023-08-17T12:33:50;3.20;;;2.80;;
57343;SDS011;43180;50.974;18.172;2023-08-17T12:44:00;4.70;;;3.50;;
57343;SDS011;43180;50.974;18.172;2023-08-17T12:46:27;6.30;;;4.40;;
57343;SDS011;43180;50.974;18.172;2023-08-17T12:56:12;5.90;;;3.90;;
57343;SDS011;43180;50.974;18.172;2023-08-17T13:05:55;4.70;;;3.70;;
57343;SDS011;43180;50.974;18.172;2023-08-17T13:15:39;3.90;;;3.50;;
57343;SDS011;43180;50.974;18.172;2023-08-17T13:25:21;3.60;;;3.30;;
57343;SDS011;43180;50.974;18.172;2023-08-17T13:35:04;3.20;;;2.90;;
57343;SDS011;43180;50.974;18.172;2023-08-17T13:44:47;5.40;;;2.40;;
57343;SDS011;43180;50.974;18.172;2023-08-17T13:54:29;3.30;;;2.40;;
57343;SDS011;43180;50.974;18.172;2023-08-17T14:04:12;3.60;;;2.40;;
57343;SDS011;43180;50.974;18.172;2023-08-17T14:13:56;4.70;;;2.50;;
57343;SDS011;43180;50.974;18.172;2023-08-17T14:23:39;4.30;;;3.10;;
57343;SDS011;43180;50.974;18.172;2023-08-17T14:33:22;2.80;;;2.50;;
57343;SDS011;43180;50.974;18.172;2023-08-17T14:43:10;7.00;;;3.20;;
57343;SDS011;43180;50.974;18.172;2023-08-17T14:53:02;6.00;;;4.10;;
57343;SDS011;43180;50.974;18.172;2023-08-17T15:02:49;3.90;;;3.00;;
57343;SDS011;43180;50.974;18.172;2023-08-17T15:12:32;1.80;;;1.70;;
57343;SDS011;43180;50.974;18.172;2023-08-17T15:22:15;7.00;;;3.50;;
57343;SDS011;43180;50.974;18.172;2023-08-17T15:32:00;14.20;;;8.90;;
57343;SDS011;43180;50.974;18.172;2023-08-17T15:41:44;12.00;;;6.40;;
57343;SDS011;43180;50.974;18.172;2023-08-17T15:51:26;9.70;;;5.10;;
57343;SDS011;43180;50.974;18.172;2023-08-17T16:01:10;2.30;;;1.80;;
57343;SDS011;43180;50.974;18.172;2023-08-17T16:10:53;3.10;;;2.00;;
57343;SDS011;43180;50.974;18.172;2023-08-17T16:20:35;9.90;;;5.10;;
57343;SDS011;43180;50.974;18.172;2023-08-17T16:30:18;4.90;;;2.40;;
57343;SDS011;43180;50.974;18.172;2023-08-17T16:40:01;5.50;;;3.70;;
57343;SDS011;43180;50.974;18.172;2023-08-17T16:49:48;17.90;;;9.90;;
57343;SDS011;43180;50.974;18.172;2023-08-17T16:59:31;9.70;;;6.80;;
57343;SDS011;43180;50.974;18.172;2023-08-17T17:09:15;16.00;;;6.40;;
57343;SDS011;43180;50.974;18.172;2023-08-17T17:18:59;6.50;;;4.90;;
57343;SDS011;43180;50.974;18.172;2023-08-17T17:28:42;5.90;;;4.10;;
57343;SDS011;43180;50.974;18.172;2023-08-17T17:38:24;7.50;;;4.70;;
57343;SDS011;43180;50.974;18.172;2023-08-17T17:48:07;3.90;;;2.80;;
57343;SDS011;43180;50.974;18.172;2023-08-17T17:57:50;7.30;;;3.90;;
57343;SDS011;43180;50.974;18.172;2023-08-17T18:07:34;8.00;;;4.50;;
57343;SDS011;43180;50.974;18.172;2023-08-17T18:17:21;1.40;;;1.30;;
57343;SDS011;43180;50.974;18.172;2023-08-17T18:27:04;8.20;;;5.30;;
57343;SDS011;43180;50.974;18.172;2023-08-17T18:36:47;6.10;;;3.80;;
57343;SDS011;43180;50.974;18.172;2023-08-17T18:46:30;9.20;;;6.90;;
57343;SDS011;43180;50.974;18.172;2023-08-17T18:56:13;7.80;;;4.60;;
57343;SDS011;43180;50.974;18.172;2023-08-17T19:05:56;12.20;;;6.60;;
57343;SDS011;43180;50.974;18.172;2023-08-17T19:15:38;21.70;;;10.30;;
57343;SDS011;43180;50.974;18.172;2023-08-17T19:25:25;5.40;;;2.40;;
57343;SDS011;43180;50.974;18.172;2023-08-17T19:42:26;10.30;;;6.70;;
57343;SDS011;43180;50.974;18.172;2023-08-17T19:52:10;9.40;;;6.20;;
57343;SDS011;43180;50.974;18.172;2023-08-17T20:01:53;10.10;;;5.00;;
57343;SDS011;43180;50.974;18.172;2023-08-17T20:11:37;10.70;;;6.30;;
57343;SDS011;43180;50.974;18.172;2023-08-17T20:21:20;7.30;;;4.50;;
57343;SDS011;43180;50.974;18.172;2023-08-17T20:31:07;7.60;;;5.30;;
57343;SDS011;43180;50.974;18.172;2023-08-17T20:40:50;10.10;;;7.50;;
57343;SDS011;43180;50.974;18.172;2023-08-17T20:50:37;16.40;;;7.80;;
57343;SDS011;43180;50.974;18.172;2023-08-17T21:00:28;10.60;;;8.20;;
57343;SDS011;43180;50.974;18.172;2023-08-17T21:10:12;11.60;;;8.30;;
57343;SDS011;43180;50.974;18.172;2023-08-17T21:19:56;10.20;;;6.50;;
57343;SDS011;43180;50.974;18.172;2023-08-17T21:29:38;8.30;;;5.00;;
57343;SDS011;43180;50.974;18.172;2023-08-17T21:39:20;8.50;;;5.80;;
57343;SDS011;43180;50.974;18.172;2023-08-17T21:49:05;3.00;;;2.70;;
57343;SDS011;43180;50.974;18.172;2023-08-17T21:58:50;12.60;;;5.90;;
57343;SDS011;43180;50.974;18.172;2023-08-17T22:08:33;13.50;;;9.30;;
57343;SDS011;43180;50.974;18.172;2023-08-17T22:18:16;9.20;;;5.60;;
57343;SDS011;43180;50.974;18.172;2023-08-17T22:27:58;5.00;;;3.50;;
57343;SDS011;43180;50.974;18.172;2023-08-17T22:37:41;18.60;;;6.00;;
57343;SDS011;43180;50.974;18.172;2023-08-17T22:47:24;17.00;;;7.90;;
57343;SDS011;43180;50.974;18.172;2023-08-17T22:57:07;20.40;;;7.90;;
57343;SDS011;43180;50.974;18.172;2023-08-17T23:06:51;12.30;;;9.30;;
57343;SDS011;43180;50.974;18.172;2023-08-17T23:16:33;21.30;;;10.30;;
57343;SDS011;43180;50.974;18.172;2023-08-17T23:26:16;19.70;;;7.80;;
57343;SDS011;43180;50.974;18.172;2023-08-17T23:35:58;20.70;;;10.80;;
57343;SDS011;43180;50.974;18.172;2023-08-17T23:45:41;14.70;;;7.40;;
57343;SDS011;43180;50.974;18.172;2023-08-17T23:55:24;15.40;;;10.20;;
